createdAt,value
2023-04-21T00:01:59.244Z,13.50
2023-04-21T00:04:26.662Z,13.50
2023-04-21T00:06:53.540Z,13.50
2023-04-21T00:09:21.537Z,13.50
2023-04-21T00:11:48.459Z,13.50
2023-04-21T00:14:15.499Z,13.50
2023-04-21T00:16:42.308Z,13.40
2023-04-21T00:19:09.608Z,13.40
2023-04-21T00:21:36.487Z,13.40
2023-04-21T00:24:03.557Z,13.40
2023-04-21T00:26:30.593Z,13.40
2023-04-21T00:28:57.807Z,13.30
2023-04-21T00:31:24.740Z,13.30
2023-04-21T00:33:51.620Z,13.30
2023-04-21T00:36:18.437Z,13.20
2023-04-21T00:38:47.321Z,13.20
2023-04-21T00:41:14.769Z,13.20
2023-04-21T00:44:09.782Z,13.10
2023-04-21T00:46:38.571Z,13.00
2023-04-21T00:49:07.812Z,12.90
2023-04-21T00:51:36.285Z,12.90
2023-04-21T00:54:05.143Z,12.80
2023-04-21T00:56:34.169Z,12.80
2023-04-21T00:59:02.214Z,12.80
2023-04-21T01:01:30.520Z,12.80
2023-04-21T01:04:00.989Z,12.80
2023-04-21T01:06:34.282Z,12.90
2023-04-21T01:09:01.933Z,12.90
2023-04-21T01:11:29.000Z,13.00
2023-04-21T01:13:56.238Z,13.00
2023-04-21T01:16:24.296Z,13.00
2023-04-21T01:18:54.129Z,13.00
2023-04-21T01:21:22.051Z,12.90
2023-04-21T01:23:49.121Z,12.90
2023-04-21T01:26:22.916Z,12.90
2023-04-21T01:28:49.957Z,12.80
2023-04-21T01:31:17.434Z,12.80
2023-04-21T01:33:45.481Z,12.80
2023-04-21T01:36:12.724Z,12.80
2023-04-21T01:38:41.112Z,12.80
2023-04-21T01:41:08.657Z,12.70
2023-04-21T01:43:37.162Z,12.80
2023-04-21T01:46:05.724Z,12.80
2023-04-21T01:48:32.763Z,12.80
2023-04-21T01:50:59.708Z,12.80
2023-04-21T01:53:27.046Z,12.80
2023-04-21T01:55:53.991Z,12.80
2023-04-21T01:58:21.905Z,12.80
2023-04-21T02:00:48.961Z,12.70
2023-04-21T02:03:15.903Z,12.70
2023-04-21T02:05:45.740Z,12.70
2023-04-21T02:08:13.343Z,12.70
2023-04-21T02:10:41.533Z,12.70
2023-04-21T02:13:11.916Z,12.80
2023-04-21T02:15:38.824Z,12.80
2023-04-21T02:18:08.393Z,12.70
2023-04-21T02:20:35.463Z,12.70
2023-04-21T02:23:02.279Z,12.70
2023-04-21T02:25:29.891Z,12.70
2023-04-21T02:27:56.944Z,12.80
2023-04-21T02:30:26.917Z,12.80
2023-04-21T02:32:54.128Z,12.90
2023-04-21T02:35:21.342Z,12.90
2023-04-21T02:37:48.125Z,13.00
2023-04-21T02:40:15.942Z,13.00
2023-04-21T02:42:42.848Z,13.00
2023-04-21T02:45:10.628Z,13.00
2023-04-21T02:47:37.550Z,13.00
2023-04-21T02:50:04.696Z,13.00
2023-04-21T02:52:37.014Z,13.00
2023-04-21T02:55:04.349Z,13.10
2023-04-21T02:57:31.430Z,13.10
2023-04-21T03:00:00.402Z,13.10
2023-04-21T03:02:27.480Z,13.20
2023-04-21T03:04:54.421Z,13.20
2023-04-21T03:07:21.697Z,13.10
2023-04-21T03:09:48.634Z,13.10
2023-04-21T03:12:15.736Z,13.10
2023-04-21T03:14:44.398Z,13.00
2023-04-21T03:17:11.367Z,13.00
2023-04-21T03:19:38.262Z,12.90
2023-04-21T03:22:05.612Z,12.90
2023-04-21T03:24:32.945Z,12.90
2023-04-21T03:27:00.099Z,12.90
2023-04-21T03:29:27.477Z,12.90
2023-04-21T03:31:54.577Z,12.90
2023-04-21T03:34:21.986Z,12.90
2023-04-21T03:36:48.947Z,13.00
2023-04-21T03:39:20.047Z,12.90
2023-04-21T03:41:49.010Z,12.90
2023-04-21T03:44:16.051Z,12.90
2023-04-21T03:46:42.942Z,13.00
2023-04-21T03:49:10.148Z,13.00
2023-04-21T03:51:36.966Z,13.00
2023-04-21T03:54:04.091Z,12.90
2023-04-21T03:56:30.957Z,13.00
2023-04-21T03:58:58.156Z,13.00
2023-04-21T04:01:25.089Z,13.00
2023-04-21T04:03:52.634Z,13.00
2023-04-21T04:06:19.775Z,12.90
2023-04-21T04:08:46.689Z,12.90
2023-04-21T04:11:13.536Z,12.90
2023-04-21T04:13:40.645Z,12.90
2023-04-21T04:16:07.962Z,12.90
2023-04-21T04:18:35.035Z,12.90
2023-04-21T04:21:08.315Z,12.90
2023-04-21T04:23:35.456Z,12.90
2023-04-21T04:26:05.670Z,12.80
2023-04-21T04:28:32.587Z,12.80
2023-04-21T04:31:00.708Z,12.70
2023-04-21T04:33:27.778Z,12.70
2023-04-21T04:35:54.827Z,12.60
2023-04-21T04:38:23.046Z,12.60
2023-04-21T04:40:57.697Z,12.50
2023-04-21T04:43:25.467Z,12.40
2023-04-21T04:45:52.608Z,12.40
2023-04-21T04:48:19.768Z,12.30
2023-04-21T04:50:46.867Z,12.30
2023-04-21T04:53:13.694Z,12.30
2023-04-21T04:55:40.839Z,12.20
2023-04-21T04:58:07.602Z,12.20
2023-04-21T05:00:34.628Z,12.10
2023-04-21T05:03:01.700Z,12.10
2023-04-21T05:05:28.737Z,12.20
2023-04-21T05:07:55.596Z,12.20
2023-04-21T05:10:22.761Z,12.20
2023-04-21T05:12:49.926Z,12.20
2023-04-21T05:15:18.168Z,12.20
2023-04-21T05:17:45.104Z,12.20
2023-04-21T05:20:12.165Z,12.20
2023-04-21T05:22:39.579Z,12.30
2023-04-21T05:25:07.041Z,12.30
2023-04-21T05:27:34.177Z,12.30
2023-04-21T05:30:01.300Z,12.30
2023-04-21T05:32:29.582Z,12.30
2023-04-21T05:34:58.771Z,12.20
2023-04-21T05:37:26.089Z,12.20
2023-04-21T05:39:53.046Z,12.20
2023-04-21T05:42:19.917Z,12.30
2023-04-21T05:44:46.720Z,12.30
2023-04-21T05:47:13.581Z,12.30
2023-04-21T05:49:40.485Z,12.40
2023-04-21T05:52:10.549Z,12.30
2023-04-21T05:54:37.490Z,12.40
2023-04-21T05:57:05.756Z,12.40
2023-04-21T05:59:32.653Z,12.40
2023-04-21T06:01:59.635Z,12.40
2023-04-21T06:04:27.058Z,12.40
2023-04-21T06:06:54.213Z,12.40
2023-04-21T06:09:21.255Z,12.50
2023-04-21T06:11:48.102Z,12.50
2023-04-21T06:14:14.827Z,12.50
2023-04-21T06:16:41.709Z,12.50
2023-04-21T06:19:08.688Z,12.60
2023-04-21T06:21:35.574Z,12.60
2023-04-21T06:24:02.392Z,12.60
2023-04-21T06:26:30.339Z,12.70
2023-04-21T06:28:57.198Z,12.70
2023-04-21T06:31:24.454Z,12.80
2023-04-21T06:33:51.572Z,12.80
2023-04-21T06:36:18.382Z,12.90
2023-04-21T06:38:45.517Z,13.00
2023-04-21T06:41:12.389Z,13.00
2023-04-21T06:43:39.388Z,13.10
2023-04-21T06:46:06.351Z,13.20
2023-04-21T06:48:33.283Z,13.40
2023-04-21T06:51:01.297Z,13.60
2023-04-21T06:53:28.155Z,13.90
2023-04-21T06:55:54.966Z,14.10
2023-04-21T06:58:21.804Z,14.30
2023-04-21T07:00:48.695Z,14.60
2023-04-21T07:03:15.777Z,14.80
2023-04-21T07:05:42.771Z,15.00
2023-04-21T07:08:09.699Z,15.40
2023-04-21T07:10:36.692Z,15.70
2023-04-21T07:13:03.575Z,16.00
2023-04-21T07:15:30.823Z,16.20
2023-04-21T07:17:59.016Z,16.40
2023-04-21T07:20:26.111Z,16.60
2023-04-21T07:22:53.154Z,16.90
2023-04-21T07:25:19.929Z,17.00
2023-04-21T07:27:46.772Z,17.10
2023-04-21T07:30:14.109Z,17.20
2023-04-21T07:32:41.114Z,17.40
2023-04-21T07:35:08.327Z,17.20
2023-04-21T07:37:35.221Z,17.00
2023-04-21T07:40:02.244Z,16.90
2023-04-21T07:42:29.067Z,16.70
2023-04-21T07:44:57.532Z,16.50
2023-04-21T07:47:24.450Z,16.40
2023-04-21T07:49:51.439Z,16.20
2023-04-21T07:52:18.249Z,16.00
2023-04-21T07:54:45.092Z,15.80
2023-04-21T07:57:11.985Z,15.70
2023-04-21T07:59:39.028Z,15.60
2023-04-21T08:02:06.141Z,15.60
2023-04-21T08:04:33.080Z,15.50
2023-04-21T08:07:00.576Z,15.50
2023-04-21T08:09:27.710Z,15.50
2023-04-21T08:11:55.301Z,15.50
2023-04-21T08:14:22.365Z,15.60
2023-04-21T08:16:49.649Z,15.60
2023-04-21T08:19:16.703Z,15.80
2023-04-21T08:21:43.676Z,16.20
2023-04-21T08:24:10.533Z,16.50
2023-04-21T08:26:37.767Z,16.60
2023-04-21T08:29:07.653Z,16.70
2023-04-21T08:31:34.744Z,17.00
2023-04-21T08:34:03.012Z,17.20
2023-04-21T08:36:30.843Z,17.30
2023-04-21T08:38:58.467Z,17.50
2023-04-21T08:41:26.262Z,17.60
2023-04-21T08:43:53.418Z,17.70
2023-04-21T08:46:21.539Z,17.80
2023-04-21T08:48:48.541Z,18.10
2023-04-21T08:51:21.727Z,18.20
2023-04-21T08:53:48.577Z,18.40
2023-04-21T08:56:15.819Z,18.70
2023-04-21T08:58:42.610Z,18.90
2023-04-21T09:01:09.535Z,19.00
2023-04-21T09:03:38.571Z,19.20
2023-04-21T09:06:08.954Z,19.30
2023-04-21T09:08:43.056Z,19.30
2023-04-21T09:11:15.005Z,19.40
2023-04-21T09:13:43.096Z,19.40
2023-04-21T09:16:22.170Z,19.50
2023-04-21T09:18:51.478Z,19.60
2023-04-21T09:21:19.889Z,19.50
2023-04-21T09:23:50.364Z,19.50
2023-04-21T09:26:19.027Z,19.30
2023-04-21T09:28:48.258Z,19.20
2023-04-21T09:31:16.941Z,19.00
2023-04-21T09:33:57.961Z,19.00
2023-04-21T09:36:28.671Z,18.90
2023-04-21T09:39:20.734Z,18.80
2023-04-21T09:41:45.063Z,18.70
2023-04-21T09:44:12.070Z,18.60
2023-04-21T09:46:43.633Z,18.60
2023-04-21T09:49:13.941Z,18.60
2023-04-21T09:52:05.304Z,18.50
2023-04-21T09:54:33.232Z,18.50
2023-04-21T09:57:02.682Z,18.40
2023-04-21T09:59:37.789Z,18.30
2023-04-21T10:02:09.770Z,18.30
2023-04-21T10:04:38.678Z,18.40
2023-04-21T10:07:07.092Z,18.40
2023-04-21T10:09:40.348Z,18.40
2023-04-21T10:12:09.478Z,18.40
2023-04-21T10:14:36.668Z,18.40
2023-04-21T10:17:09.984Z,18.40
2023-04-21T10:19:41.809Z,18.30
2023-04-21T10:22:09.786Z,18.20
2023-04-21T10:24:41.114Z,18.20
2023-04-21T10:27:35.627Z,18.20
2023-04-21T10:30:22.557Z,18.20
2023-04-21T10:33:01.854Z,18.10
2023-04-21T10:36:01.652Z,18.10
2023-04-21T10:38:43.102Z,18.10
2023-04-21T10:41:31.357Z,18.10
2023-04-21T10:44:14.019Z,18.00
2023-04-21T10:46:45.169Z,18.00
2023-04-21T10:49:21.801Z,18.10
2023-04-21T10:51:57.842Z,18.20
2023-04-21T10:54:26.154Z,18.40
2023-04-21T10:56:54.634Z,18.50
2023-04-21T10:59:22.696Z,18.60
2023-04-21T11:01:49.616Z,18.50
2023-04-21T11:04:21.489Z,18.40
2023-04-21T11:07:26.074Z,18.30
2023-04-21T11:10:04.020Z,18.20
2023-04-21T11:12:32.959Z,18.30
2023-04-21T11:15:02.709Z,18.40
2023-04-21T11:17:29.767Z,18.60
2023-04-21T11:19:56.970Z,18.90
2023-04-21T11:22:26.359Z,19.10
2023-04-21T11:24:58.343Z,19.30
2023-04-21T11:27:32.009Z,19.30
2023-04-21T11:29:59.338Z,19.50
2023-04-21T11:32:26.296Z,19.50
2023-04-21T11:34:54.217Z,19.40
2023-04-21T11:37:25.815Z,19.30
2023-04-21T11:39:59.900Z,19.20
2023-04-21T11:42:27.363Z,19.20
2023-04-21T11:44:58.547Z,19.20
2023-04-21T11:47:27.267Z,19.10
2023-04-21T11:49:56.288Z,19.20
2023-04-21T11:52:33.002Z,19.20
2023-04-21T11:55:11.902Z,19.30
2023-04-21T11:57:40.868Z,19.30
2023-04-21T12:00:15.605Z,19.50
2023-04-21T12:02:43.643Z,19.60
2023-04-21T12:05:12.149Z,19.50
2023-04-21T12:07:44.627Z,19.40
2023-04-21T12:10:20.925Z,19.40
2023-04-21T12:12:48.664Z,19.50
2023-04-21T12:15:21.398Z,19.50
2023-04-21T12:17:55.505Z,19.60
2023-04-21T12:20:24.079Z,19.80
2023-04-21T12:22:50.892Z,20.00
2023-04-21T12:25:18.150Z,20.00
2023-04-21T12:27:52.442Z,19.90
2023-04-21T12:30:20.280Z,19.60
2023-04-21T12:32:48.255Z,19.40
2023-04-21T12:35:15.700Z,19.40
2023-04-21T12:37:42.647Z,19.40
2023-04-21T12:40:09.893Z,19.40
2023-04-21T12:42:38.411Z,19.40
2023-04-21T12:45:06.758Z,19.50
2023-04-21T12:47:34.235Z,19.40
2023-04-21T12:50:01.302Z,19.30
2023-04-21T12:52:28.347Z,19.40
2023-04-21T12:54:55.267Z,19.40
2023-04-21T12:57:22.264Z,19.50
2023-04-21T12:59:49.517Z,19.50
2023-04-21T13:02:16.864Z,19.50
2023-04-21T13:04:43.919Z,19.50
2023-04-21T13:07:11.318Z,19.50
2023-04-21T13:09:38.734Z,19.50
2023-04-21T13:12:05.569Z,19.40
2023-04-21T13:14:32.785Z,19.50
2023-04-21T13:16:59.833Z,19.50
2023-04-21T13:19:26.868Z,19.40
2023-04-21T13:21:54.294Z,19.30
2023-04-21T13:24:21.834Z,19.30
2023-04-21T13:26:48.852Z,19.30
2023-04-21T13:29:16.037Z,19.20
2023-04-21T13:31:43.089Z,19.30
2023-04-21T13:34:09.948Z,19.30
2023-04-21T13:36:37.019Z,19.30
2023-04-21T13:39:05.787Z,19.40
2023-04-21T13:41:32.805Z,19.50
2023-04-21T13:43:59.799Z,19.50
2023-04-21T13:46:26.929Z,19.40
2023-04-21T13:48:54.484Z,19.40
2023-04-21T13:51:21.283Z,19.30
2023-04-21T13:53:48.671Z,19.20
2023-04-21T13:56:16.129Z,19.20
2023-04-21T13:58:43.298Z,19.20
2023-04-21T14:01:10.192Z,19.10
2023-04-21T14:03:37.360Z,19.10
2023-04-21T14:06:04.884Z,19.00
2023-04-21T14:08:32.119Z,19.00
2023-04-21T14:10:58.925Z,19.00
2023-04-21T14:13:36.127Z,19.10
2023-04-21T14:16:07.335Z,19.10
2023-04-21T14:18:34.500Z,19.20
2023-04-21T14:21:01.348Z,19.30
2023-04-21T14:23:28.232Z,19.30
2023-04-21T14:25:55.286Z,19.40
2023-04-21T14:28:22.456Z,19.50
2023-04-21T14:30:49.372Z,19.60
2023-04-21T14:33:16.300Z,19.60
2023-04-21T14:35:43.289Z,19.50
2023-04-21T14:38:10.216Z,19.50
2023-04-21T14:40:37.173Z,19.50
2023-04-21T14:43:04.084Z,19.50
2023-04-21T14:45:31.072Z,19.50
2023-04-21T14:47:58.436Z,19.60
2023-04-21T14:50:25.389Z,19.60
2023-04-21T14:52:52.287Z,19.70
2023-04-21T14:55:19.302Z,19.70
2023-04-21T14:57:47.081Z,19.70
2023-04-21T15:00:14.398Z,19.70
2023-04-21T15:02:41.674Z,19.60
2023-04-21T15:05:09.078Z,19.70
2023-04-21T15:07:36.201Z,19.70
2023-04-21T15:10:03.332Z,19.80
2023-04-21T15:12:30.308Z,19.80
2023-04-21T15:14:57.210Z,19.90
2023-04-21T15:17:24.322Z,19.90
2023-04-21T15:19:51.455Z,19.80
2023-04-21T15:22:18.682Z,19.90
2023-04-21T15:24:46.349Z,19.90
2023-04-21T15:27:13.147Z,19.90
2023-04-21T15:29:40.203Z,20.00
2023-04-21T15:32:07.085Z,20.00
2023-04-21T15:34:34.000Z,20.00
2023-04-21T15:37:00.809Z,20.10
2023-04-21T15:39:27.686Z,20.10
2023-04-21T15:41:55.105Z,20.10
2023-04-21T15:44:21.988Z,20.10
2023-04-21T15:46:49.005Z,20.10
2023-04-21T15:49:16.067Z,20.20
2023-04-21T15:51:43.159Z,20.20
2023-04-21T15:54:10.472Z,20.30
2023-04-21T15:56:37.560Z,20.30
2023-04-21T15:59:05.192Z,20.30
2023-04-21T16:01:32.189Z,20.20
2023-04-21T16:04:02.433Z,20.10
2023-04-21T16:06:30.866Z,20.10
2023-04-21T16:08:58.445Z,20.00
2023-04-21T16:11:26.669Z,20.00
2023-04-21T16:13:53.595Z,20.00
2023-04-21T16:16:20.552Z,20.00
2023-04-21T16:18:47.419Z,20.00
2023-04-21T16:21:14.326Z,20.10
2023-04-21T16:23:41.437Z,20.10
2023-04-21T16:26:09.094Z,20.10
2023-04-21T16:28:36.103Z,20.10
2023-04-21T16:31:03.309Z,20.10
2023-04-21T16:33:30.789Z,20.00
2023-04-21T16:35:57.814Z,20.00
2023-04-21T16:38:25.644Z,20.00
2023-04-21T16:40:52.561Z,19.90
2023-04-21T16:43:19.592Z,19.90
2023-04-21T16:45:46.465Z,19.90
2023-04-21T16:48:13.778Z,19.90
2023-04-21T16:50:41.953Z,19.90
2023-04-21T16:53:09.016Z,19.90
2023-04-21T16:55:35.941Z,19.80
2023-04-21T16:58:02.986Z,19.80
2023-04-21T17:00:30.453Z,19.80
2023-04-21T17:02:57.815Z,19.80
2023-04-21T17:05:24.953Z,19.90
2023-04-21T17:07:51.989Z,19.90
2023-04-21T17:10:19.014Z,19.80
2023-04-21T17:12:46.388Z,19.80
2023-04-21T17:15:13.443Z,19.80
2023-04-21T17:17:44.890Z,19.80
2023-04-21T17:20:13.646Z,19.80
2023-04-21T17:22:41.764Z,19.70
2023-04-21T17:25:09.603Z,19.70
2023-04-21T17:27:38.051Z,19.70
2023-04-21T17:30:06.828Z,19.70
2023-04-21T17:32:34.428Z,19.70
2023-04-21T17:35:01.770Z,19.70
2023-04-21T17:37:30.259Z,19.60
2023-04-21T17:39:59.264Z,19.60
2023-04-21T17:42:28.571Z,19.60
2023-04-21T17:44:55.654Z,19.50
2023-04-21T17:47:22.619Z,19.50
2023-04-21T17:49:49.613Z,19.40
2023-04-21T17:52:17.203Z,19.30
2023-04-21T17:54:44.222Z,19.30
2023-04-21T17:57:11.920Z,19.20
2023-04-21T17:59:39.647Z,19.20
2023-04-21T18:02:07.366Z,19.10
2023-04-21T18:04:34.938Z,19.00
2023-04-21T18:07:02.750Z,18.90
2023-04-21T18:09:29.671Z,18.70
2023-04-21T18:11:57.037Z,18.40
2023-04-21T18:14:24.650Z,18.00
2023-04-21T18:16:51.503Z,17.80
2023-04-21T18:19:18.568Z,17.40
2023-04-21T18:21:45.958Z,17.10
2023-04-21T18:24:12.874Z,16.90
2023-04-21T18:26:39.773Z,16.70
2023-04-21T18:29:06.937Z,16.60
2023-04-21T18:31:34.414Z,16.40
2023-04-21T18:34:01.328Z,16.40
2023-04-21T18:36:30.762Z,16.30
2023-04-21T18:38:59.308Z,16.30
2023-04-21T18:41:27.463Z,16.30
2023-04-21T18:43:54.877Z,16.20
2023-04-21T18:46:22.216Z,16.10
2023-04-21T18:48:49.154Z,16.00
2023-04-21T18:51:16.035Z,15.90
2023-04-21T18:53:43.388Z,15.90
2023-04-21T18:56:10.362Z,15.80
2023-04-21T18:58:37.530Z,15.80
2023-04-21T19:01:04.508Z,15.80
2023-04-21T19:03:31.841Z,15.80
2023-04-21T19:05:58.948Z,15.80
2023-04-21T19:08:40.615Z,15.80
2023-04-21T19:11:10.190Z,15.70
2023-04-21T19:13:37.291Z,15.70
2023-04-21T19:16:05.202Z,15.80
2023-04-21T19:18:32.480Z,15.80
2023-04-21T19:20:59.438Z,15.80
2023-04-21T19:23:26.188Z,15.80
2023-04-21T19:25:55.162Z,15.80
2023-04-21T19:28:21.981Z,15.80
2023-04-21T19:30:48.978Z,15.80
2023-04-21T19:33:16.393Z,15.80
2023-04-21T19:35:43.326Z,15.90
2023-04-21T19:38:10.425Z,16.00
2023-04-21T19:40:37.670Z,16.00
2023-04-21T19:43:04.914Z,16.00
2023-04-21T19:45:31.809Z,16.00
2023-04-21T19:47:58.857Z,15.90
2023-04-21T19:50:25.950Z,16.00
2023-04-21T19:52:52.916Z,16.00
2023-04-21T19:55:19.766Z,16.10
2023-04-21T19:57:46.584Z,16.10
2023-04-21T20:00:14.185Z,16.20
2023-04-21T20:02:41.385Z,16.20
2023-04-21T20:05:09.496Z,16.30
2023-04-21T20:07:37.303Z,16.30
2023-04-21T20:10:06.070Z,16.30
2023-04-21T20:12:33.508Z,16.30
2023-04-21T20:15:01.213Z,16.40
2023-04-21T20:17:29.217Z,16.40
2023-04-21T20:19:56.167Z,16.40
2023-04-21T20:22:23.145Z,16.40
2023-04-21T20:24:52.192Z,16.40
2023-04-21T20:27:19.372Z,16.30
2023-04-21T20:29:47.591Z,16.30
2023-04-21T20:32:14.533Z,16.30
2023-04-21T20:34:42.286Z,16.20
2023-04-21T20:37:10.797Z,16.20
2023-04-21T20:39:38.703Z,16.20
2023-04-21T20:42:12.720Z,16.20
2023-04-21T20:44:42.848Z,16.10
2023-04-21T20:47:11.187Z,15.90
2023-04-21T20:49:39.604Z,15.80
2023-04-21T20:52:06.896Z,15.80
2023-04-21T20:54:34.711Z,15.60
2023-04-21T20:57:02.412Z,15.50
2023-04-21T20:59:29.756Z,15.50
2023-04-21T21:01:56.613Z,15.40
2023-04-21T21:04:23.777Z,15.40
2023-04-21T21:06:50.908Z,15.30
2023-04-21T21:09:18.953Z,15.20
2023-04-21T21:11:46.075Z,15.20
2023-04-21T21:14:13.368Z,15.20
2023-04-21T21:16:40.661Z,15.20
2023-04-21T21:19:07.598Z,15.20
2023-04-21T21:21:34.524Z,15.20
2023-04-21T21:24:01.392Z,15.20
2023-04-21T21:26:29.353Z,15.20
2023-04-21T21:28:56.739Z,15.20
2023-04-21T21:31:23.623Z,15.20
2023-04-21T21:33:50.606Z,15.10
2023-04-21T21:36:17.621Z,15.20
2023-04-21T21:38:44.500Z,15.20
2023-04-21T21:41:12.505Z,15.20
2023-04-21T21:43:39.554Z,15.30
2023-04-21T21:46:06.558Z,15.30
2023-04-21T21:48:33.452Z,15.30
2023-04-21T21:51:00.522Z,15.20
2023-04-21T21:53:27.332Z,15.30
2023-04-21T21:55:54.184Z,15.30
2023-04-21T21:58:21.473Z,15.30
2023-04-21T22:00:51.976Z,15.20
2023-04-21T22:03:19.918Z,15.30
2023-04-21T22:05:47.552Z,15.20
2023-04-21T22:08:15.510Z,15.20
2023-04-21T22:10:43.255Z,15.30
2023-04-21T22:13:10.725Z,15.30
2023-04-21T22:15:38.657Z,15.30
2023-04-21T22:18:07.161Z,15.20
2023-04-21T22:20:34.232Z,15.20
2023-04-21T22:23:00.986Z,15.20
2023-04-21T22:25:27.881Z,15.20
2023-04-21T22:27:58.214Z,15.20
2023-04-21T22:30:25.913Z,15.20
2023-04-21T22:32:52.965Z,15.20
2023-04-21T22:35:20.006Z,15.20
2023-04-21T22:37:46.784Z,15.10
2023-04-21T22:40:14.080Z,14.90
2023-04-21T22:42:41.330Z,14.70
2023-04-21T22:45:08.716Z,14.60
2023-04-21T22:47:35.693Z,14.50
2023-04-21T22:50:02.675Z,14.50
2023-04-21T22:52:29.837Z,14.40
2023-04-21T22:54:56.738Z,14.20
2023-04-21T22:57:23.852Z,14.10
2023-04-21T22:59:50.645Z,14.10
2023-04-21T23:02:17.675Z,14.10
2023-04-21T23:04:44.540Z,14.10
2023-04-21T23:07:11.577Z,14.00
2023-04-21T23:09:39.068Z,14.00
2023-04-21T23:12:06.482Z,14.00
2023-04-21T23:14:33.301Z,14.00
2023-04-21T23:17:00.355Z,14.00
2023-04-21T23:19:27.258Z,13.90
2023-04-21T23:21:54.112Z,13.80
2023-04-21T23:24:21.052Z,13.70
2023-04-21T23:26:47.901Z,13.70
2023-04-21T23:29:14.712Z,13.70
2023-04-21T23:31:41.651Z,13.70
2023-04-21T23:34:08.671Z,13.60
2023-04-21T23:36:35.851Z,13.60
2023-04-21T23:39:02.689Z,13.60
2023-04-21T23:41:29.761Z,13.60
2023-04-21T23:43:56.611Z,13.60
2023-04-21T23:46:23.528Z,13.60
2023-04-21T23:48:50.371Z,13.60
2023-04-21T23:51:17.309Z,13.60
2023-04-21T23:53:44.214Z,13.70
2023-04-21T23:56:10.988Z,13.60
2023-04-21T23:58:38.003Z,13.60
